Weather at Seppe-Hoeven Airfield

Public forecast

Using degrees Celsius for public forecast. Weather courtesy of forecast.io.

Closest aviation weather report (METAR) to Seppe-Hoeven Airfield

Closest report is Woensdrecht Air Base, 10.1 nm (18.8 km) SW.

2024/06/20 16:25 (retrieved 19 minutes ago)

EHWO 201625Z AUTO 07008KT 020V110 9999 OVC100 21/13 Q1017 BLU

Closest aviation forecast (TAF) to Seppe-Hoeven Airfield

Forecast is more than 6 hours old.

Closest forecast is Woensdrecht Air Base, 10.1 nm (18.8 km) SW.

2024/06/20 09:06 (retrieved 8 hours ago)

TAF EHWO 200816Z 2009/2021 05007KT CAVOK PROB30 TEMPO 2017/2019 SCT030 BKN050 SCT070CB TEMPO 2019/2021 4500 SHRA SCT018 BKN035 SCT050CB